createdAt,value
2019-01-29T00:00:31.788Z,94229.30
2019-01-29T00:03:01.854Z,94232.23
2019-01-29T00:05:34.555Z,94236.09
2019-01-29T00:08:03.591Z,94233.99
2019-01-29T00:10:33.610Z,94233.27
2019-01-29T00:13:02.618Z,94236.78
2019-01-29T00:15:49.240Z,94242.02
2019-01-29T00:18:49.740Z,94250.45
2019-01-29T00:21:31.193Z,94252.28
2019-01-29T00:24:00.775Z,94253.23
2019-01-29T00:26:29.853Z,94249.67
2019-01-29T00:28:58.915Z,94252.69
2019-01-29T00:31:28.858Z,94254.13
2019-01-29T00:33:57.934Z,94248.65
2019-01-29T00:36:27.781Z,94259.78
2019-01-29T00:38:56.867Z,94261.08
2019-01-29T00:41:29.824Z,94269.98
2019-01-29T00:43:58.870Z,94265.61
2019-01-29T00:46:28.004Z,94268.97
2019-01-29T00:48:57.410Z,94265.58
2019-01-29T00:51:28.536Z,94262.27
2019-01-29T00:53:58.507Z,94267.60
2019-01-29T00:56:28.071Z,94272.07
2019-01-29T00:58:57.127Z,94270.73
2019-01-29T01:01:26.189Z,94281.38
2019-01-29T01:03:55.672Z,94285.47
2019-01-29T01:06:24.714Z,94279.90
2019-01-29T01:08:54.330Z,94287.98
2019-01-29T01:11:37.406Z,94294.78
2019-01-29T01:14:06.460Z,94298.08
2019-01-29T01:19:13.795Z,94301.61
2019-01-29T01:21:44.354Z,94305.62
2019-01-29T01:26:55.014Z,94308.29
2019-01-29T01:29:24.059Z,94304.66
2019-01-29T01:31:53.100Z,94313.34
2019-01-29T01:34:22.437Z,94315.77
2019-01-29T01:36:51.494Z,94311.72
2019-01-29T01:39:28.954Z,94322.10
2019-01-29T01:41:58.434Z,94319.71
2019-01-29T01:44:29.443Z,94322.91
2019-01-29T01:46:58.489Z,94319.78
2019-01-29T01:52:03.280Z,94321.53
2019-01-29T01:57:11.037Z,94332.84
2019-01-29T01:59:50.565Z,94333.70
2019-01-29T02:02:19.685Z,94332.41
2019-01-29T02:04:50.640Z,94329.60
2019-01-29T02:07:54.799Z,94333.59
2019-01-29T02:13:04.549Z,94338.86
2019-01-29T02:15:41.090Z,94336.00
2019-01-29T02:18:32.918Z,94342.62
2019-01-29T02:21:02.366Z,94344.66
2019-01-29T02:26:09.363Z,94350.82
2019-01-29T02:28:38.420Z,94358.58
2019-01-29T02:31:07.462Z,94368.67
2019-01-29T02:33:37.431Z,94365.49
2019-01-29T02:36:06.534Z,94365.09
2019-01-29T02:38:44.769Z,94367.26
2019-01-29T02:41:15.824Z,94374.17
2019-01-29T02:43:44.881Z,94377.73
2019-01-29T02:46:22.875Z,94377.23
2019-01-29T02:48:51.960Z,94379.05
2019-01-29T02:51:21.021Z,94379.67
2019-01-29T02:53:51.023Z,94380.31
2019-01-29T02:56:22.136Z,94385.47
2019-01-29T02:58:52.680Z,94382.37
2019-01-29T03:01:21.816Z,94388.53
2019-01-29T03:03:50.875Z,94385.80
2019-01-29T03:06:20.422Z,94386.53
2019-01-29T03:08:50.415Z,94391.70
2019-01-29T03:14:29.313Z,94394.41
2019-01-29T03:16:59.262Z,94399.13
2019-01-29T03:19:29.656Z,94407.35
2019-01-29T03:21:58.725Z,94407.43
2019-01-29T03:24:43.590Z,94411.20
2019-01-29T03:27:19.931Z,94426.38
2019-01-29T03:29:48.987Z,94417.06
2019-01-29T03:32:30.787Z,94425.40
2019-01-29T03:35:02.091Z,94434.16
2019-01-29T03:37:29.146Z,94428.16
2019-01-29T03:39:58.182Z,94430.83
2019-01-29T03:42:27.226Z,94441.39
2019-01-29T03:45:07.877Z,94438.70
2019-01-29T03:47:47.906Z,94442.05
2019-01-29T03:50:18.536Z,94448.39
2019-01-29T03:55:24.249Z,94448.54
2019-01-29T03:58:08.529Z,94453.82
2019-01-29T04:00:37.623Z,94456.15
2019-01-29T04:03:06.712Z,94457.30
2019-01-29T04:06:04.065Z,94460.67
2019-01-29T04:11:16.613Z,94467.27
2019-01-29T04:13:49.134Z,94466.15
2019-01-29T04:16:18.203Z,94469.55
2019-01-29T04:18:47.242Z,94461.47
2019-01-29T04:21:16.674Z,94469.50
2019-01-29T04:26:25.489Z,94462.59
2019-01-29T04:28:54.554Z,94464.81
2019-01-29T04:31:23.998Z,94466.83
2019-01-29T04:39:10.909Z,94468.38
2019-01-29T04:41:39.953Z,94473.32
2019-01-29T04:44:09.593Z,94478.97
2019-01-29T04:46:46.428Z,94478.59
2019-01-29T04:49:16.432Z,94478.02
2019-01-29T04:51:50.355Z,94481.20
2019-01-29T04:54:19.408Z,94479.39
2019-01-29T04:56:48.950Z,94480.77
2019-01-29T04:59:18.027Z,94479.95
2019-01-29T05:01:47.084Z,94478.00
2019-01-29T05:06:58.131Z,94480.59
2019-01-29T05:09:29.686Z,94478.95
2019-01-29T05:11:58.773Z,94481.42
2019-01-29T05:14:27.824Z,94482.98
2019-01-29T05:16:57.085Z,94482.33
2019-01-29T05:19:29.776Z,94482.08
2019-01-29T05:22:07.333Z,94484.14
2019-01-29T05:24:36.377Z,94488.50
2019-01-29T05:27:05.410Z,94492.13
2019-01-29T05:29:34.921Z,94490.67
2019-01-29T05:32:04.047Z,94490.72
2019-01-29T05:34:33.092Z,94491.52
2019-01-29T05:37:04.067Z,94492.94
2019-01-29T05:39:33.130Z,94500.67
2019-01-29T05:42:24.817Z,94504.30
2019-01-29T05:45:03.412Z,94509.11
2019-01-29T05:47:32.480Z,94514.36
2019-01-29T05:50:01.522Z,94515.48
2019-01-29T05:52:30.572Z,94517.24
2019-01-29T05:55:16.654Z,94513.28
2019-01-29T05:57:59.006Z,94519.06
2019-01-29T06:00:40.738Z,94519.28
2019-01-29T06:03:24.448Z,94518.92
2019-01-29T06:05:59.455Z,94521.31
2019-01-29T06:08:28.897Z,94526.10
2019-01-29T06:13:24.420Z,94529.98
2019-01-29T06:16:29.266Z,94533.56
2019-01-29T06:24:25.724Z,94534.38
2019-01-29T06:26:52.989Z,94538.09
2019-01-29T06:29:22.159Z,94542.05
2019-01-29T06:32:23.306Z,94546.86
2019-01-29T06:35:01.403Z,94545.27
2019-01-29T06:37:30.569Z,94557.28
2019-01-29T06:39:59.638Z,94558.19
2019-01-29T06:42:29.642Z,94556.84
2019-01-29T06:45:17.819Z,94557.70
2019-01-29T06:47:47.293Z,94559.69
2019-01-29T06:50:16.370Z,94565.13
2019-01-29T06:52:45.396Z,94571.58
2019-01-29T06:55:15.145Z,94568.48
2019-01-29T06:57:44.203Z,94564.02
2019-01-29T07:00:28.910Z,94567.75
2019-01-29T07:03:03.352Z,94574.51
2019-01-29T07:05:32.412Z,94576.06
2019-01-29T07:08:01.470Z,94577.27
2019-01-29T07:10:30.505Z,94578.55
2019-01-29T07:13:01.915Z,94582.78
2019-01-29T07:15:37.406Z,94581.59
2019-01-29T07:18:06.527Z,94581.00
2019-01-29T07:20:35.762Z,94589.77
2019-01-29T07:23:05.742Z,94585.14
2019-01-29T07:25:35.289Z,94592.24
2019-01-29T07:28:06.270Z,94593.39
2019-01-29T07:30:35.334Z,94599.70
2019-01-29T07:33:05.941Z,94600.73
2019-01-29T07:35:35.002Z,94603.44
2019-01-29T07:40:39.615Z,94612.45
2019-01-29T07:43:10.648Z,94617.78
2019-01-29T07:45:40.206Z,94619.00
2019-01-29T07:48:09.300Z,94617.83
2019-01-29T07:50:38.326Z,94619.20
2019-01-29T07:53:07.951Z,94610.16
2019-01-29T07:55:37.161Z,94615.84
2019-01-29T07:58:06.212Z,94616.73
2019-01-29T08:00:35.255Z,94617.92
2019-01-29T08:03:04.411Z,94616.52
2019-01-29T08:08:12.990Z,94614.16
2019-01-29T08:10:43.015Z,94616.85
2019-01-29T08:13:12.038Z,94614.89
2019-01-29T08:15:43.006Z,94620.70
2019-01-29T08:18:25.101Z,94619.34
2019-01-29T08:20:58.144Z,94620.93
2019-01-29T08:23:27.207Z,94623.27
2019-01-29T08:25:58.184Z,94619.86
2019-01-29T08:28:27.934Z,94632.02
2019-01-29T08:31:00.918Z,94623.59
2019-01-29T08:33:29.947Z,94627.97
2019-01-29T08:35:59.175Z,94633.22
2019-01-29T08:38:28.927Z,94624.59
2019-01-29T08:40:58.899Z,94621.09
2019-01-29T08:43:27.938Z,94625.03
2019-01-29T08:45:56.977Z,94627.95
2019-01-29T08:48:25.997Z,94630.05
2019-01-29T08:50:59.648Z,94638.26
2019-01-29T08:53:29.624Z,94636.61
2019-01-29T08:55:59.592Z,94638.44
2019-01-29T08:58:28.619Z,94632.76
2019-01-29T09:00:57.697Z,94635.28
2019-01-29T09:03:27.213Z,94639.36
2019-01-29T09:05:56.286Z,94629.52
2019-01-29T09:08:25.322Z,94628.86
2019-01-29T09:10:54.910Z,94621.92
2019-01-29T09:17:22.700Z,94611.30
2019-01-29T09:19:51.730Z,94610.69
2019-01-29T09:22:20.952Z,94608.64
2019-01-29T09:24:50.013Z,94605.20
2019-01-29T09:27:19.063Z,94604.44
2019-01-29T09:32:23.783Z,94588.97
2019-01-29T09:34:52.819Z,94591.51
2019-01-29T09:37:21.854Z,94589.34
2019-01-29T09:39:50.904Z,94581.69
2019-01-29T09:42:21.583Z,94579.38
2019-01-29T09:44:50.691Z,94584.16
2019-01-29T09:47:19.945Z,94590.42
2019-01-29T09:49:50.542Z,94598.51
2019-01-29T09:52:19.627Z,94594.00
2019-01-29T09:54:48.705Z,94590.95
2019-01-29T09:59:54.529Z,94586.78
2019-01-29T10:02:25.534Z,94585.13
2019-01-29T10:04:56.187Z,94585.41
2019-01-29T10:07:25.274Z,94577.00
2019-01-29T10:09:54.315Z,94586.05
2019-01-29T10:12:24.299Z,94576.19
2019-01-29T10:14:54.126Z,94575.01
2019-01-29T10:17:23.161Z,94567.48
2019-01-29T10:19:52.322Z,94572.25
2019-01-29T10:22:21.878Z,94565.55
2019-01-29T10:24:50.947Z,94562.77
2019-01-29T10:27:22.034Z,94560.22
2019-01-29T10:29:51.073Z,94554.39
2019-01-29T10:32:20.106Z,94548.53
2019-01-29T10:34:49.802Z,94541.95
2019-01-29T10:37:18.879Z,94537.69
2019-01-29T10:39:48.044Z,94525.86
2019-01-29T10:42:17.615Z,94530.02
2019-01-29T10:44:46.670Z,94524.48
2019-01-29T10:47:15.709Z,94530.44
2019-01-29T10:52:20.478Z,94517.08
2019-01-29T10:54:49.900Z,94517.38
2019-01-29T10:57:18.951Z,94525.05
2019-01-29T10:59:47.980Z,94515.95
2019-01-29T11:02:18.972Z,94508.55
2019-01-29T11:04:48.015Z,94507.98
2019-01-29T11:07:29.089Z,94498.59
2019-01-29T11:09:58.191Z,94498.66
2019-01-29T11:15:03.930Z,94490.08
2019-01-29T11:17:34.874Z,94485.95
2019-01-29T11:20:09.314Z,94479.33
2019-01-29T11:22:38.374Z,94471.00
2019-01-29T11:25:08.352Z,94457.95
2019-01-29T11:27:37.856Z,94463.50
2019-01-29T11:30:07.199Z,94462.95
2019-01-29T11:32:36.232Z,94461.07
2019-01-29T11:35:05.268Z,94468.19
2019-01-29T11:37:34.360Z,94465.65
2019-01-29T11:40:04.031Z,94464.70
2019-01-29T11:42:34.986Z,94463.31
2019-01-29T11:45:04.074Z,94461.49
2019-01-29T11:47:33.102Z,94456.41
2019-01-29T11:52:38.856Z,94453.24
2019-01-29T11:55:07.896Z,94449.00
2019-01-29T11:57:36.924Z,94448.16
2019-01-29T12:00:12.276Z,94447.72
2019-01-29T12:02:42.553Z,94439.47
2019-01-29T12:05:12.535Z,94437.24
2019-01-29T12:07:41.596Z,94436.45
2019-01-29T12:10:10.723Z,94427.86
2019-01-29T12:12:43.786Z,94420.00
2019-01-29T12:15:18.966Z,94412.58
2019-01-29T12:17:47.995Z,94414.57
2019-01-29T12:20:17.088Z,94405.78
2019-01-29T12:22:46.105Z,94404.26
2019-01-29T12:25:21.533Z,94397.13
2019-01-29T12:27:50.805Z,94394.58
2019-01-29T12:32:59.553Z,94385.83
2019-01-29T12:35:28.577Z,94383.63
2019-01-29T12:37:59.631Z,94376.74
2019-01-29T12:40:29.631Z,94375.00
2019-01-29T12:42:59.625Z,94376.16
2019-01-29T12:45:29.317Z,94366.78
2019-01-29T12:48:00.399Z,94365.36
2019-01-29T12:50:32.668Z,94359.84
2019-01-29T12:53:06.687Z,94353.25
2019-01-29T12:55:41.901Z,94349.75
2019-01-29T12:58:12.540Z,94346.83
2019-01-29T13:00:41.943Z,94339.06
2019-01-29T13:03:14.834Z,94329.89
2019-01-29T13:05:43.907Z,94332.44
2019-01-29T13:08:15.184Z,94321.90
2019-01-29T13:10:44.657Z,94320.43
2019-01-29T13:13:13.714Z,94313.85
2019-01-29T13:15:42.754Z,94307.45
2019-01-29T13:20:47.613Z,94309.19
2019-01-29T13:23:16.670Z,94305.69
2019-01-29T13:25:45.716Z,94301.48
2019-01-29T13:28:14.752Z,94289.45
2019-01-29T13:30:44.373Z,94290.19
2019-01-29T13:33:13.455Z,94288.88
2019-01-29T13:35:42.546Z,94279.86
2019-01-29T13:38:25.566Z,94284.37
2019-01-29T13:40:54.612Z,94271.31
2019-01-29T13:43:24.035Z,94273.30
2019-01-29T13:45:53.114Z,94277.17
2019-01-29T13:50:59.187Z,94271.56
2019-01-29T13:53:28.210Z,94275.64
2019-01-29T13:55:59.202Z,94273.97
2019-01-29T14:01:03.991Z,94258.12
2019-01-29T14:03:35.447Z,94253.74
2019-01-29T14:06:04.521Z,94243.75
2019-01-29T14:08:33.718Z,94244.22
2019-01-29T14:13:38.066Z,94239.40
2019-01-29T14:16:09.483Z,94236.55
2019-01-29T14:18:38.536Z,94232.96
2019-01-29T14:21:08.567Z,94239.56
2019-01-29T14:23:37.975Z,94237.13
2019-01-29T14:26:07.036Z,94245.27
2019-01-29T14:31:17.591Z,94226.64
2019-01-29T14:33:46.643Z,94228.47
2019-01-29T14:36:16.784Z,94230.53
2019-01-29T14:41:26.044Z,94222.36
2019-01-29T14:43:55.383Z,94218.45
2019-01-29T14:46:24.398Z,94223.20
2019-01-29T14:48:54.789Z,94220.52
2019-01-29T14:51:23.830Z,94217.22
2019-01-29T14:56:37.250Z,94210.36
2019-01-29T14:59:09.447Z,94209.31
2019-01-29T15:01:43.859Z,94206.98
2019-01-29T15:06:55.619Z,94203.71
2019-01-29T15:12:04.061Z,94199.29
2019-01-29T15:14:38.584Z,94195.41
2019-01-29T15:17:11.425Z,94189.34
2019-01-29T15:19:45.317Z,94187.86
2019-01-29T15:22:18.454Z,94185.91
2019-01-29T15:27:29.734Z,94183.64
2019-01-29T15:30:02.844Z,94179.36
2019-01-29T15:35:10.402Z,94174.34
2019-01-29T15:37:43.062Z,94178.59
2019-01-29T15:40:18.839Z,94178.72
2019-01-29T15:42:51.941Z,94174.50
2019-01-29T15:45:26.418Z,94177.31
2019-01-29T15:47:57.175Z,94177.63
2019-01-29T15:50:36.551Z,94178.58
2019-01-29T15:53:05.618Z,94175.76
2019-01-29T15:55:35.782Z,94178.08
2019-01-29T15:58:04.832Z,94173.52
2019-01-29T16:03:10.114Z,94161.03
2019-01-29T16:05:40.866Z,94158.10
2019-01-29T16:08:14.385Z,94150.38
2019-01-29T16:10:45.317Z,94147.14
2019-01-29T16:13:16.767Z,94140.08
2019-01-29T16:18:22.015Z,94133.59
2019-01-29T16:23:22.250Z,94126.97
2019-01-29T16:25:51.978Z,94128.70
2019-01-29T16:28:21.051Z,94123.42
2019-01-29T16:33:29.890Z,94127.27
2019-01-29T16:35:59.029Z,94124.61
2019-01-29T16:38:28.022Z,94120.89
2019-01-29T16:41:00.603Z,94121.75
2019-01-29T16:43:34.078Z,94125.30
2019-01-29T16:46:04.659Z,94121.47
2019-01-29T16:48:33.733Z,94113.41
2019-01-29T16:51:02.789Z,94116.61
2019-01-29T16:53:31.826Z,94115.06
2019-01-29T16:56:00.875Z,94103.92
2019-01-29T17:01:16.153Z,94104.40
2019-01-29T17:06:21.697Z,94091.66
2019-01-29T17:08:50.690Z,94085.33
2019-01-29T17:11:20.698Z,94083.50
2019-01-29T17:13:53.540Z,94082.48
2019-01-29T17:16:22.631Z,94087.43
2019-01-29T17:18:52.121Z,94083.23
2019-01-29T17:21:26.192Z,94077.98
2019-01-29T17:23:55.244Z,94075.65
2019-01-29T17:26:24.299Z,94076.44
2019-01-29T17:29:04.230Z,94066.84
2019-01-29T17:31:34.677Z,94066.13
2019-01-29T17:34:08.989Z,94065.66
2019-01-29T17:36:38.977Z,94066.41
2019-01-29T17:39:17.944Z,94062.21
2019-01-29T17:41:55.827Z,94061.80
2019-01-29T17:44:25.676Z,94053.12
2019-01-29T17:46:54.788Z,94051.89
2019-01-29T17:49:23.838Z,94048.66
2019-01-29T17:51:54.291Z,94044.42
2019-01-29T17:54:23.346Z,94041.70
2019-01-29T17:56:53.328Z,94038.63
2019-01-29T17:59:22.416Z,94033.73
2019-01-29T18:01:51.914Z,94030.22
2019-01-29T18:04:21.379Z,94033.88
2019-01-29T18:09:26.188Z,94027.56
2019-01-29T18:11:56.989Z,94022.00
2019-01-29T18:14:25.293Z,94015.66
2019-01-29T18:17:03.666Z,94012.11
2019-01-29T18:19:32.766Z,94015.78
2019-01-29T18:22:17.510Z,94009.56
2019-01-29T18:24:50.871Z,94010.18
2019-01-29T18:27:19.929Z,94010.92
2019-01-29T18:29:49.370Z,94008.64
2019-01-29T18:32:18.474Z,94007.84
2019-01-29T18:35:05.603Z,94004.20
2019-01-29T18:37:35.627Z,93996.96
2019-01-29T18:40:32.474Z,93993.67
2019-01-29T18:43:01.974Z,93988.25
2019-01-29T18:45:31.042Z,93979.11
2019-01-29T18:48:09.555Z,93974.48
2019-01-29T18:50:49.695Z,93972.20
2019-01-29T18:53:18.740Z,93961.69
2019-01-29T18:55:56.078Z,93957.35
2019-01-29T18:58:25.512Z,93952.30
2019-01-29T19:00:56.496Z,93950.57
2019-01-29T19:03:26.122Z,93943.86
2019-01-29T19:05:56.163Z,93937.48
2019-01-29T19:08:25.574Z,93935.46
2019-01-29T19:11:03.390Z,93930.27
2019-01-29T19:13:32.446Z,93930.73
2019-01-29T19:16:01.929Z,93932.73
2019-01-29T19:18:30.994Z,93927.14
2019-01-29T19:21:17.127Z,93924.33
2019-01-29T19:23:46.198Z,93919.34
2019-01-29T19:26:16.146Z,93914.25
2019-01-29T19:28:45.579Z,93907.72
2019-01-29T19:34:07.729Z,93900.07
2019-01-29T19:36:36.770Z,93899.55
2019-01-29T19:39:05.851Z,93892.53
2019-01-29T19:41:38.650Z,93888.02
2019-01-29T19:44:17.421Z,93883.98
2019-01-29T19:46:46.518Z,93884.43
2019-01-29T19:49:15.548Z,93879.53
2019-01-29T19:51:52.311Z,93878.36
2019-01-29T19:54:22.722Z,93865.52
2019-01-29T19:57:00.839Z,93861.64
2019-01-29T19:59:29.905Z,93858.03
2019-01-29T20:02:03.627Z,93849.48
2019-01-29T20:04:32.666Z,93842.59
2019-01-29T20:07:07.587Z,93841.00
2019-01-29T20:09:36.679Z,93834.36
2019-01-29T20:12:11.407Z,93832.77
2019-01-29T20:15:17.991Z,93830.48
2019-01-29T20:17:47.996Z,93830.16
2019-01-29T20:20:23.870Z,93829.34
2019-01-29T20:22:52.954Z,93820.92
2019-01-29T20:25:22.064Z,93821.46
2019-01-29T20:27:55.051Z,93820.84
2019-01-29T20:30:24.191Z,93815.73
2019-01-29T20:32:57.074Z,93806.59
2019-01-29T20:35:26.139Z,93802.70
2019-01-29T20:37:57.094Z,93805.09
2019-01-29T20:40:26.590Z,93799.48
2019-01-29T20:45:34.294Z,93792.35
2019-01-29T20:48:03.351Z,93795.29
2019-01-29T20:50:33.188Z,93788.66
2019-01-29T20:53:03.649Z,93784.45
2019-01-29T20:55:32.693Z,93781.28
2019-01-29T20:58:01.740Z,93777.27
2019-01-29T21:00:33.930Z,93781.40
2019-01-29T21:05:54.813Z,93768.46
2019-01-29T21:08:25.394Z,93762.15
2019-01-29T21:13:30.686Z,93760.94
2019-01-29T21:15:59.783Z,93749.79
2019-01-29T21:18:28.866Z,93745.41
2019-01-29T21:20:59.841Z,93745.33
2019-01-29T21:23:28.907Z,93740.26
2019-01-29T21:28:40.167Z,93731.62
2019-01-29T21:31:09.331Z,93725.36
2019-01-29T21:33:39.512Z,93720.87
2019-01-29T21:36:08.891Z,93713.39
2019-01-29T21:38:38.399Z,93709.35
2019-01-29T21:43:43.275Z,93712.85
2019-01-29T21:46:12.338Z,93705.59
2019-01-29T21:48:52.065Z,93700.55
2019-01-29T21:51:21.609Z,93701.36
2019-01-29T21:53:50.734Z,93694.88
2019-01-29T21:56:20.678Z,93692.81
2019-01-29T21:58:50.177Z,93686.12
2019-01-29T22:01:27.762Z,93678.09
2019-01-29T22:04:00.711Z,93678.03
2019-01-29T22:06:29.781Z,93672.16
2019-01-29T22:09:00.852Z,93674.28
2019-01-29T22:11:30.352Z,93664.86
2019-01-29T22:14:01.397Z,93662.55
2019-01-29T22:21:41.402Z,93650.00
2019-01-29T22:24:11.678Z,93645.99
2019-01-29T22:29:24.828Z,93636.49
2019-01-29T22:32:06.372Z,93630.31
2019-01-29T22:34:37.390Z,93631.78
2019-01-29T22:37:06.857Z,93631.72
2019-01-29T22:39:38.901Z,93627.55
2019-01-29T22:42:11.555Z,93626.38
2019-01-29T22:44:41.392Z,93620.92
2019-01-29T22:47:10.488Z,93616.95
2019-01-29T22:49:39.566Z,93610.27
2019-01-29T22:54:53.149Z,93604.02
2019-01-29T22:57:35.082Z,93600.14
2019-01-29T23:03:15.122Z,93587.12
2019-01-29T23:05:44.229Z,93587.55
2019-01-29T23:08:24.368Z,93578.64
2019-01-29T23:10:53.426Z,93572.02
2019-01-29T23:13:22.497Z,93574.38
2019-01-29T23:15:52.814Z,93571.24
2019-01-29T23:18:32.702Z,93566.91
2019-01-29T23:21:01.782Z,93561.07
2019-01-29T23:23:31.262Z,93560.97
2019-01-29T23:26:01.333Z,93552.67
2019-01-29T23:28:30.408Z,93556.06
2019-01-29T23:31:01.482Z,93552.25
2019-01-29T23:36:07.312Z,93549.16
2019-01-29T23:38:36.386Z,93543.70
2019-01-29T23:41:05.548Z,93540.34
2019-01-29T23:43:34.595Z,93542.12
2019-01-29T23:46:20.487Z,93535.94
2019-01-29T23:48:50.023Z,93526.91
2019-01-29T23:51:19.107Z,93518.14
2019-01-29T23:53:48.182Z,93511.10
2019-01-29T23:56:21.331Z,93503.20
2019-01-29T23:58:50.390Z,93496.71
